sensor_id;sensor_type;location;lat;lon;timestamp;temperature;humidity
7307;DHT22;3694;48.732;9.248;2022-10-16T00:01:46;14.30;99.90
7307;DHT22;3694;48.732;9.248;2022-10-16T00:04:12;14.30;99.90
7307;DHT22;3694;48.732;9.248;2022-10-16T00:06:38;14.30;99.90
7307;DHT22;3694;48.732;9.248;2022-10-16T00:09:05;14.30;99.90
7307;DHT22;3694;48.732;9.248;2022-10-16T00:11:33;14.20;99.90
7307;DHT22;3694;48.732;9.248;2022-10-16T00:14:00;14.10;99.90
7307;DHT22;3694;48.732;9.248;2022-10-16T00:16:27;14.10;99.90
7307;DHT22;3694;48.732;9.248;2022-10-16T00:18:53;14.00;99.90
7307;DHT22;3694;48.732;9.248;2022-10-16T00:21:24;13.90;99.90
7307;DHT22;3694;48.732;9.248;2022-10-16T00:23:59;13.80;99.90
7307;DHT22;3694;48.732;9.248;2022-10-16T00:26:26;13.70;99.90
7307;DHT22;3694;48.732;9.248;2022-10-16T00:28:52;13.60;99.90
7307;DHT22;3694;48.732;9.248;2022-10-16T00:31:19;13.50;99.90
7307;DHT22;3694;48.732;9.248;2022-10-16T00:33:45;13.60;99.90
7307;DHT22;3694;48.732;9.248;2022-10-16T00:36:13;13.60;99.90
7307;DHT22;3694;48.732;9.248;2022-10-16T00:38:39;13.50;99.90
7307;DHT22;3694;48.732;9.248;2022-10-16T00:41:06;13.50;99.90
7307;DHT22;3694;48.732;9.248;2022-10-16T00:43:46;13.60;99.90
7307;DHT22;3694;48.732;9.248;2022-10-16T00:46:24;13.60;99.90
7307;DHT22;3694;48.732;9.248;2022-10-16T00:49:10;13.60;99.90
7307;DHT22;3694;48.732;9.248;2022-10-16T00:51:48;13.60;99.90
7307;DHT22;3694;48.732;9.248;2022-10-16T00:54:21;13.50;99.90
7307;DHT22;3694;48.732;9.248;2022-10-16T00:56:48;13.50;99.90
7307;DHT22;3694;48.732;9.248;2022-10-16T00:59:18;13.50;99.90
7307;DHT22;3694;48.732;9.248;2022-10-16T01:01:44;13.50;99.90
7307;DHT22;3694;48.732;9.248;2022-10-16T01:04:10;13.50;99.90
7307;DHT22;3694;48.732;9.248;2022-10-16T01:09:28;13.40;99.90
7307;DHT22;3694;48.732;9.248;2022-10-16T01:15:13;13.40;99.90
7307;DHT22;3694;48.732;9.248;2022-10-16T01:17:49;13.40;99.90
7307;DHT22;3694;48.732;9.248;2022-10-16T01:25:55;13.40;99.90
7307;DHT22;3694;48.732;9.248;2022-10-16T01:28:29;13.40;99.90
7307;DHT22;3694;48.732;9.248;2022-10-16T01:30:58;13.40;99.90
7307;DHT22;3694;48.732;9.248;2022-10-16T01:33:28;13.40;99.90
7307;DHT22;3694;48.732;9.248;2022-10-16T01:35:59;13.40;99.90
7307;DHT22;3694;48.732;9.248;2022-10-16T01:38:38;13.30;99.90
7307;DHT22;3694;48.732;9.248;2022-10-16T01:41:11;13.30;99.90
7307;DHT22;3694;48.732;9.248;2022-10-16T01:43:45;13.30;99.90
7307;DHT22;3694;48.732;9.248;2022-10-16T01:46:14;13.30;99.90
7307;DHT22;3694;48.732;9.248;2022-10-16T01:48:41;13.30;99.90
7307;DHT22;3694;48.732;9.248;2022-10-16T01:51:10;13.30;99.90
7307;DHT22;3694;48.732;9.248;2022-10-16T01:53:38;13.40;99.90
7307;DHT22;3694;48.732;9.248;2022-10-16T01:56:08;13.30;99.90
7307;DHT22;3694;48.732;9.248;2022-10-16T01:58:39;13.40;99.90
7307;DHT22;3694;48.732;9.248;2022-10-16T02:01:07;13.40;99.90
7307;DHT22;3694;48.732;9.248;2022-10-16T02:03:34;13.70;99.90
7307;DHT22;3694;48.732;9.248;2022-10-16T02:06:01;13.50;99.90
7307;DHT22;3694;48.732;9.248;2022-10-16T02:08:29;13.60;99.90
7307;DHT22;3694;48.732;9.248;2022-10-16T02:10:57;13.70;99.90
7307;DHT22;3694;48.732;9.248;2022-10-16T02:13:28;13.70;99.90
7307;DHT22;3694;48.732;9.248;2022-10-16T02:15:55;13.70;99.90
7307;DHT22;3694;48.732;9.248;2022-10-16T02:18:20;13.80;99.90
7307;DHT22;3694;48.732;9.248;2022-10-16T02:20:57;13.80;99.90
7307;DHT22;3694;48.732;9.248;2022-10-16T02:23:34;13.90;99.90
7307;DHT22;3694;48.732;9.248;2022-10-16T02:26:04;13.90;99.90
7307;DHT22;3694;48.732;9.248;2022-10-16T02:28:45;13.90;99.90
7307;DHT22;3694;48.732;9.248;2022-10-16T02:31:16;14.00;99.90
7307;DHT22;3694;48.732;9.248;2022-10-16T02:33:44;14.00;99.90
7307;DHT22;3694;48.732;9.248;2022-10-16T02:36:10;14.00;99.90
7307;DHT22;3694;48.732;9.248;2022-10-16T02:38:36;14.00;99.90
7307;DHT22;3694;48.732;9.248;2022-10-16T02:41:03;14.00;99.90
7307;DHT22;3694;48.732;9.248;2022-10-16T02:43:29;14.00;99.90
7307;DHT22;3694;48.732;9.248;2022-10-16T02:45:55;14.00;99.90
7307;DHT22;3694;48.732;9.248;2022-10-16T02:48:21;14.00;99.90
7307;DHT22;3694;48.732;9.248;2022-10-16T02:50:46;13.90;99.90
7307;DHT22;3694;48.732;9.248;2022-10-16T02:53:12;13.90;99.90
7307;DHT22;3694;48.732;9.248;2022-10-16T02:55:37;13.90;99.90
7307;DHT22;3694;48.732;9.248;2022-10-16T02:58:03;13.90;99.90
7307;DHT22;3694;48.732;9.248;2022-10-16T03:00:28;13.90;99.90
7307;DHT22;3694;48.732;9.248;2022-10-16T03:02:54;13.90;99.90
7307;DHT22;3694;48.732;9.248;2022-10-16T03:05:19;13.90;99.90
7307;DHT22;3694;48.732;9.248;2022-10-16T03:07:45;13.80;99.90
7307;DHT22;3694;48.732;9.248;2022-10-16T03:10:10;13.70;99.90
7307;DHT22;3694;48.732;9.248;2022-10-16T03:12:36;13.70;99.90
7307;DHT22;3694;48.732;9.248;2022-10-16T03:15:02;13.70;99.90
7307;DHT22;3694;48.732;9.248;2022-10-16T03:17:28;13.70;99.90
7307;DHT22;3694;48.732;9.248;2022-10-16T03:19:53;13.60;99.90
7307;DHT22;3694;48.732;9.248;2022-10-16T03:22:19;13.60;99.90
7307;DHT22;3694;48.732;9.248;2022-10-16T03:24:44;13.70;99.90
7307;DHT22;3694;48.732;9.248;2022-10-16T03:27:10;13.60;99.90
7307;DHT22;3694;48.732;9.248;2022-10-16T03:29:35;13.50;99.90
7307;DHT22;3694;48.732;9.248;2022-10-16T03:32:01;13.50;99.90
7307;DHT22;3694;48.732;9.248;2022-10-16T03:34:27;13.40;99.90
7307;DHT22;3694;48.732;9.248;2022-10-16T03:36:53;13.60;99.90
7307;DHT22;3694;48.732;9.248;2022-10-16T03:39:19;13.50;99.90
7307;DHT22;3694;48.732;9.248;2022-10-16T03:41:44;13.50;99.90
7307;DHT22;3694;48.732;9.248;2022-10-16T03:44:12;13.40;99.90
7307;DHT22;3694;48.732;9.248;2022-10-16T03:46:37;13.30;99.90
7307;DHT22;3694;48.732;9.248;2022-10-16T03:49:03;13.40;99.90
7307;DHT22;3694;48.732;9.248;2022-10-16T03:51:28;13.40;99.90
7307;DHT22;3694;48.732;9.248;2022-10-16T03:53:54;13.40;99.90
7307;DHT22;3694;48.732;9.248;2022-10-16T03:56:19;13.40;99.90
7307;DHT22;3694;48.732;9.248;2022-10-16T03:58:45;13.40;99.90
7307;DHT22;3694;48.732;9.248;2022-10-16T04:01:10;13.30;99.90
7307;DHT22;3694;48.732;9.248;2022-10-16T04:03:36;13.30;99.90
7307;DHT22;3694;48.732;9.248;2022-10-16T04:06:01;13.40;99.90
7307;DHT22;3694;48.732;9.248;2022-10-16T04:08:27;13.30;99.90
7307;DHT22;3694;48.732;9.248;2022-10-16T04:10:53;13.30;99.90
7307;DHT22;3694;48.732;9.248;2022-10-16T04:13:18;13.30;99.90
7307;DHT22;3694;48.732;9.248;2022-10-16T04:15:45;13.40;99.90
7307;DHT22;3694;48.732;9.248;2022-10-16T04:18:11;13.50;99.90
7307;DHT22;3694;48.732;9.248;2022-10-16T04:20:36;13.40;99.90
7307;DHT22;3694;48.732;9.248;2022-10-16T04:23:02;13.40;99.90
7307;DHT22;3694;48.732;9.248;2022-10-16T04:25:28;13.40;99.90
7307;DHT22;3694;48.732;9.248;2022-10-16T04:27:54;13.40;99.90
7307;DHT22;3694;48.732;9.248;2022-10-16T04:30:20;13.40;99.90
7307;DHT22;3694;48.732;9.248;2022-10-16T04:32:52;13.40;99.90
7307;DHT22;3694;48.732;9.248;2022-10-16T04:35:19;13.40;99.90
7307;DHT22;3694;48.732;9.248;2022-10-16T04:37:45;13.40;99.90
7307;DHT22;3694;48.732;9.248;2022-10-16T04:40:11;13.50;99.90
7307;DHT22;3694;48.732;9.248;2022-10-16T04:42:37;13.50;99.90
7307;DHT22;3694;48.732;9.248;2022-10-16T04:45:03;13.50;99.90
7307;DHT22;3694;48.732;9.248;2022-10-16T04:47:29;13.40;99.90
7307;DHT22;3694;48.732;9.248;2022-10-16T04:49:55;13.40;99.90
7307;DHT22;3694;48.732;9.248;2022-10-16T04:52:20;13.40;99.90
7307;DHT22;3694;48.732;9.248;2022-10-16T04:54:46;13.40;99.90
7307;DHT22;3694;48.732;9.248;2022-10-16T04:57:12;13.40;99.90
7307;DHT22;3694;48.732;9.248;2022-10-16T04:59:38;13.40;99.90
7307;DHT22;3694;48.732;9.248;2022-10-16T05:02:03;13.40;99.90
7307;DHT22;3694;48.732;9.248;2022-10-16T05:04:29;13.50;99.90
7307;DHT22;3694;48.732;9.248;2022-10-16T05:06:54;13.40;99.90
7307;DHT22;3694;48.732;9.248;2022-10-16T05:09:20;13.30;99.90
7307;DHT22;3694;48.732;9.248;2022-10-16T05:11:46;13.30;99.90
7307;DHT22;3694;48.732;9.248;2022-10-16T05:14:11;13.30;99.90
7307;DHT22;3694;48.732;9.248;2022-10-16T05:16:37;13.30;99.90
7307;DHT22;3694;48.732;9.248;2022-10-16T05:19:03;13.30;99.90
7307;DHT22;3694;48.732;9.248;2022-10-16T05:21:28;13.30;99.90
7307;DHT22;3694;48.732;9.248;2022-10-16T05:23:54;13.30;99.90
7307;DHT22;3694;48.732;9.248;2022-10-16T05:26:20;13.30;99.90
7307;DHT22;3694;48.732;9.248;2022-10-16T05:28:46;13.30;99.90
7307;DHT22;3694;48.732;9.248;2022-10-16T05:31:11;13.30;99.90
7307;DHT22;3694;48.732;9.248;2022-10-16T05:33:37;13.20;99.90
7307;DHT22;3694;48.732;9.248;2022-10-16T05:36:04;13.20;99.90
7307;DHT22;3694;48.732;9.248;2022-10-16T05:38:29;13.10;99.90
7307;DHT22;3694;48.732;9.248;2022-10-16T05:40:55;13.00;99.90
7307;DHT22;3694;48.732;9.248;2022-10-16T05:43:21;13.00;99.90
7307;DHT22;3694;48.732;9.248;2022-10-16T05:46:04;12.90;99.90
7307;DHT22;3694;48.732;9.248;2022-10-16T05:48:31;12.90;99.90
7307;DHT22;3694;48.732;9.248;2022-10-16T05:51:06;12.90;99.90
7307;DHT22;3694;48.732;9.248;2022-10-16T05:53:33;13.00;99.90
7307;DHT22;3694;48.732;9.248;2022-10-16T05:56:00;13.10;99.90
7307;DHT22;3694;48.732;9.248;2022-10-16T05:58:29;13.00;99.90
7307;DHT22;3694;48.732;9.248;2022-10-16T06:00:56;13.00;99.90
7307;DHT22;3694;48.732;9.248;2022-10-16T06:03:21;13.10;99.90
7307;DHT22;3694;48.732;9.248;2022-10-16T06:05:47;13.30;99.90
7307;DHT22;3694;48.732;9.248;2022-10-16T06:08:13;13.40;99.90
7307;DHT22;3694;48.732;9.248;2022-10-16T06:10:38;13.50;99.90
7307;DHT22;3694;48.732;9.248;2022-10-16T06:13:04;13.60;99.90
7307;DHT22;3694;48.732;9.248;2022-10-16T06:15:29;13.60;99.90
7307;DHT22;3694;48.732;9.248;2022-10-16T06:17:55;13.70;99.90
7307;DHT22;3694;48.732;9.248;2022-10-16T06:20:20;13.90;99.90
7307;DHT22;3694;48.732;9.248;2022-10-16T06:22:46;13.80;99.90
7307;DHT22;3694;48.732;9.248;2022-10-16T06:25:11;14.00;99.90
7307;DHT22;3694;48.732;9.248;2022-10-16T06:27:39;14.00;99.90
7307;DHT22;3694;48.732;9.248;2022-10-16T06:30:06;14.10;99.90
7307;DHT22;3694;48.732;9.248;2022-10-16T06:32:32;14.20;99.90
7307;DHT22;3694;48.732;9.248;2022-10-16T06:34:57;14.20;99.90
7307;DHT22;3694;48.732;9.248;2022-10-16T06:37:23;14.00;99.90
7307;DHT22;3694;48.732;9.248;2022-10-16T06:39:50;14.30;99.90
7307;DHT22;3694;48.732;9.248;2022-10-16T06:42:17;14.40;99.90
7307;DHT22;3694;48.732;9.248;2022-10-16T06:44:43;14.60;99.90
7307;DHT22;3694;48.732;9.248;2022-10-16T06:47:08;14.70;99.90
7307;DHT22;3694;48.732;9.248;2022-10-16T06:49:34;14.90;99.90
7307;DHT22;3694;48.732;9.248;2022-10-16T06:52:00;15.00;99.90
7307;DHT22;3694;48.732;9.248;2022-10-16T06:54:26;15.20;99.90
7307;DHT22;3694;48.732;9.248;2022-10-16T06:56:52;15.80;99.90
7307;DHT22;3694;48.732;9.248;2022-10-16T06:59:20;16.50;99.90
7307;DHT22;3694;48.732;9.248;2022-10-16T07:01:45;16.30;99.90
7307;DHT22;3694;48.732;9.248;2022-10-16T07:04:11;16.10;99.90
7307;DHT22;3694;48.732;9.248;2022-10-16T07:06:36;15.90;99.90
7307;DHT22;3694;48.732;9.248;2022-10-16T07:09:04;15.90;99.90
7307;DHT22;3694;48.732;9.248;2022-10-16T07:11:30;15.90;99.90
7307;DHT22;3694;48.732;9.248;2022-10-16T07:13:56;15.90;99.90
7307;DHT22;3694;48.732;9.248;2022-10-16T07:16:24;15.90;99.90
7307;DHT22;3694;48.732;9.248;2022-10-16T07:18:50;15.90;99.90
7307;DHT22;3694;48.732;9.248;2022-10-16T07:21:19;16.00;99.90
7307;DHT22;3694;48.732;9.248;2022-10-16T07:23:49;15.90;99.90
7307;DHT22;3694;48.732;9.248;2022-10-16T07:26:15;16.10;99.90
7307;DHT22;3694;48.732;9.248;2022-10-16T07:28:42;16.20;99.90
7307;DHT22;3694;48.732;9.248;2022-10-16T07:31:10;16.30;99.90
7307;DHT22;3694;48.732;9.248;2022-10-16T07:33:37;16.50;99.90
7307;DHT22;3694;48.732;9.248;2022-10-16T07:36:04;16.40;99.90
7307;DHT22;3694;48.732;9.248;2022-10-16T07:38:29;16.30;99.90
7307;DHT22;3694;48.732;9.248;2022-10-16T07:40:59;16.50;99.90
7307;DHT22;3694;48.732;9.248;2022-10-16T07:43:25;16.40;99.90
7307;DHT22;3694;48.732;9.248;2022-10-16T07:45:52;16.50;99.90
7307;DHT22;3694;48.732;9.248;2022-10-16T07:48:18;16.50;99.90
7307;DHT22;3694;48.732;9.248;2022-10-16T07:50:44;16.50;99.90
7307;DHT22;3694;48.732;9.248;2022-10-16T07:53:10;16.60;99.90
7307;DHT22;3694;48.732;9.248;2022-10-16T07:55:36;16.60;99.90
7307;DHT22;3694;48.732;9.248;2022-10-16T07:58:02;16.70;99.90
7307;DHT22;3694;48.732;9.248;2022-10-16T08:00:28;16.80;99.90
7307;DHT22;3694;48.732;9.248;2022-10-16T08:02:53;16.90;99.90
7307;DHT22;3694;48.732;9.248;2022-10-16T08:05:19;17.00;99.90
7307;DHT22;3694;48.732;9.248;2022-10-16T08:07:49;17.00;99.90
7307;DHT22;3694;48.732;9.248;2022-10-16T08:10:17;17.10;99.90
7307;DHT22;3694;48.732;9.248;2022-10-16T08:12:43;17.30;99.90
7307;DHT22;3694;48.732;9.248;2022-10-16T08:15:09;17.30;99.90
7307;DHT22;3694;48.732;9.248;2022-10-16T08:17:35;17.40;99.90
7307;DHT22;3694;48.732;9.248;2022-10-16T08:20:01;17.60;99.90
7307;DHT22;3694;48.732;9.248;2022-10-16T08:22:27;17.70;99.90
7307;DHT22;3694;48.732;9.248;2022-10-16T08:24:52;17.80;99.90
7307;DHT22;3694;48.732;9.248;2022-10-16T08:27:18;18.00;99.90
7307;DHT22;3694;48.732;9.248;2022-10-16T08:29:43;18.30;99.90
7307;DHT22;3694;48.732;9.248;2022-10-16T08:32:09;18.60;99.90
7307;DHT22;3694;48.732;9.248;2022-10-16T08:34:34;18.70;99.90
7307;DHT22;3694;48.732;9.248;2022-10-16T08:37:00;19.00;99.90
7307;DHT22;3694;48.732;9.248;2022-10-16T08:39:25;19.30;99.90
7307;DHT22;3694;48.732;9.248;2022-10-16T08:42:19;19.40;99.90
7307;DHT22;3694;48.732;9.248;2022-10-16T08:48:07;19.60;99.90
7307;DHT22;3694;48.732;9.248;2022-10-16T08:50:37;19.50;99.90
7307;DHT22;3694;48.732;9.248;2022-10-16T08:53:05;19.40;99.90
7307;DHT22;3694;48.732;9.248;2022-10-16T08:55:49;19.20;99.90
7307;DHT22;3694;48.732;9.248;2022-10-16T08:58:21;19.10;99.90
7307;DHT22;3694;48.732;9.248;2022-10-16T09:00:51;19.00;99.90
7307;DHT22;3694;48.732;9.248;2022-10-16T09:09:20;18.70;99.90
7307;DHT22;3694;48.732;9.248;2022-10-16T09:15:01;19.10;99.90
7307;DHT22;3694;48.732;9.248;2022-10-16T09:18:00;19.50;99.90
7307;DHT22;3694;48.732;9.248;2022-10-16T09:23:18;20.30;99.90
7307;DHT22;3694;48.732;9.248;2022-10-16T09:25:49;20.60;99.90
7307;DHT22;3694;48.732;9.248;2022-10-16T09:28:16;20.70;99.90
7307;DHT22;3694;48.732;9.248;2022-10-16T09:30:42;20.80;99.90
7307;DHT22;3694;48.732;9.248;2022-10-16T09:33:10;20.80;99.90
7307;DHT22;3694;48.732;9.248;2022-10-16T09:35:47;20.70;99.70
7307;DHT22;3694;48.732;9.248;2022-10-16T09:38:29;20.80;99.90
7307;DHT22;3694;48.732;9.248;2022-10-16T09:41:00;21.10;99.90
7307;DHT22;3694;48.732;9.248;2022-10-16T09:43:28;21.20;99.90
7307;DHT22;3694;48.732;9.248;2022-10-16T09:51:02;21.50;99.90
7307;DHT22;3694;48.732;9.248;2022-10-16T09:53:42;21.60;99.90
7307;DHT22;3694;48.732;9.248;2022-10-16T09:56:10;21.70;99.90
7307;DHT22;3694;48.732;9.248;2022-10-16T09:58:42;21.70;99.80
7307;DHT22;3694;48.732;9.248;2022-10-16T10:01:13;21.80;99.30
7307;DHT22;3694;48.732;9.248;2022-10-16T10:03:41;21.70;98.50
7307;DHT22;3694;48.732;9.248;2022-10-16T10:06:21;21.60;98.00
7307;DHT22;3694;48.732;9.248;2022-10-16T10:09:03;21.90;98.30
7307;DHT22;3694;48.732;9.248;2022-10-16T10:11:59;21.80;97.50
7307;DHT22;3694;48.732;9.248;2022-10-16T10:17:24;22.10;97.40
7307;DHT22;3694;48.732;9.248;2022-10-16T10:36:43;22.10;95.90
7307;DHT22;3694;48.732;9.248;2022-10-16T10:42:36;22.10;96.00
7307;DHT22;3694;48.732;9.248;2022-10-16T10:44:59;22.10;95.80
7307;DHT22;3694;48.732;9.248;2022-10-16T10:50:28;22.30;95.40
7307;DHT22;3694;48.732;9.248;2022-10-16T10:55:48;22.00;94.80
7307;DHT22;3694;48.732;9.248;2022-10-16T11:03:46;21.80;95.10
7307;DHT22;3694;48.732;9.248;2022-10-16T11:06:43;21.90;95.20
7307;DHT22;3694;48.732;9.248;2022-10-16T11:09:18;22.10;95.10
7307;DHT22;3694;48.732;9.248;2022-10-16T11:12:22;22.20;94.70
7307;DHT22;3694;48.732;9.248;2022-10-16T11:15:04;22.00;94.90
7307;DHT22;3694;48.732;9.248;2022-10-16T11:17:41;22.20;94.40
7307;DHT22;3694;48.732;9.248;2022-10-16T11:20:14;22.00;94.30
7307;DHT22;3694;48.732;9.248;2022-10-16T11:22:51;22.10;94.50
7307;DHT22;3694;48.732;9.248;2022-10-16T11:28:06;22.40;94.30
7307;DHT22;3694;48.732;9.248;2022-10-16T11:30:46;22.40;94.40
7307;DHT22;3694;48.732;9.248;2022-10-16T11:33:22;22.30;94.20
7307;DHT22;3694;48.732;9.248;2022-10-16T11:39:00;22.10;94.30
7307;DHT22;3694;48.732;9.248;2022-10-16T11:44:32;22.00;94.40
7307;DHT22;3694;48.732;9.248;2022-10-16T11:49:47;22.00;93.70
7307;DHT22;3694;48.732;9.248;2022-10-16T11:57:57;22.10;93.10
7307;DHT22;3694;48.732;9.248;2022-10-16T12:00:36;22.30;93.10
7307;DHT22;3694;48.732;9.248;2022-10-16T12:03:35;22.70;92.80
7307;DHT22;3694;48.732;9.248;2022-10-16T12:08:44;22.90;92.40
7307;DHT22;3694;48.732;9.248;2022-10-16T12:11:24;23.10;91.70
7307;DHT22;3694;48.732;9.248;2022-10-16T12:14:16;23.20;91.80
7307;DHT22;3694;48.732;9.248;2022-10-16T12:16:57;23.40;92.30
7307;DHT22;3694;48.732;9.248;2022-10-16T12:19:25;23.40;91.30
7307;DHT22;3694;48.732;9.248;2022-10-16T12:21:55;23.20;91.60
7307;DHT22;3694;48.732;9.248;2022-10-16T12:24:31;23.20;91.40
7307;DHT22;3694;48.732;9.248;2022-10-16T12:26:57;23.20;91.20
7307;DHT22;3694;48.732;9.248;2022-10-16T12:29:35;23.40;91.30
7307;DHT22;3694;48.732;9.248;2022-10-16T12:32:05;23.50;91.00
7307;DHT22;3694;48.732;9.248;2022-10-16T12:34:43;23.50;91.20
7307;DHT22;3694;48.732;9.248;2022-10-16T12:37:13;23.60;91.60
7307;DHT22;3694;48.732;9.248;2022-10-16T12:39:39;23.70;90.70
7307;DHT22;3694;48.732;9.248;2022-10-16T12:42:30;23.70;90.70
7307;DHT22;3694;48.732;9.248;2022-10-16T12:44:56;23.80;91.10
7307;DHT22;3694;48.732;9.248;2022-10-16T12:49:55;24.00;91.00
7307;DHT22;3694;48.732;9.248;2022-10-16T12:52:38;24.00;90.90
7307;DHT22;3694;48.732;9.248;2022-10-16T12:55:05;24.20;90.50
7307;DHT22;3694;48.732;9.248;2022-10-16T13:00:24;23.70;90.40
7307;DHT22;3694;48.732;9.248;2022-10-16T13:03:30;23.60;90.30
7307;DHT22;3694;48.732;9.248;2022-10-16T13:09:19;23.10;91.20
7307;DHT22;3694;48.732;9.248;2022-10-16T13:12:16;22.90;90.60
7307;DHT22;3694;48.732;9.248;2022-10-16T13:14:51;23.00;91.00
7307;DHT22;3694;48.732;9.248;2022-10-16T13:23:03;23.70;91.00
7307;DHT22;3694;48.732;9.248;2022-10-16T13:25:38;24.00;92.20
7307;DHT22;3694;48.732;9.248;2022-10-16T13:28:08;24.20;91.30
7307;DHT22;3694;48.732;9.248;2022-10-16T13:30:50;24.10;90.90
7307;DHT22;3694;48.732;9.248;2022-10-16T13:33:28;24.00;90.80
7307;DHT22;3694;48.732;9.248;2022-10-16T13:35:56;23.90;90.90
7307;DHT22;3694;48.732;9.248;2022-10-16T13:38:33;23.70;90.50
7307;DHT22;3694;48.732;9.248;2022-10-16T13:41:05;23.50;91.10
7307;DHT22;3694;48.732;9.248;2022-10-16T13:43:36;23.50;91.50
7307;DHT22;3694;48.732;9.248;2022-10-16T13:46:10;23.50;91.00
7307;DHT22;3694;48.732;9.248;2022-10-16T13:48:36;23.70;91.10
7307;DHT22;3694;48.732;9.248;2022-10-16T13:51:12;23.80;91.10
7307;DHT22;3694;48.732;9.248;2022-10-16T13:53:38;23.90;92.40
7307;DHT22;3694;48.732;9.248;2022-10-16T13:56:13;23.90;92.10
7307;DHT22;3694;48.732;9.248;2022-10-16T13:58:39;23.60;92.10
7307;DHT22;3694;48.732;9.248;2022-10-16T14:01:25;23.30;92.10
7307;DHT22;3694;48.732;9.248;2022-10-16T14:03:52;22.90;91.90
7307;DHT22;3694;48.732;9.248;2022-10-16T14:06:20;22.70;92.70
7307;DHT22;3694;48.732;9.248;2022-10-16T14:09:23;22.40;92.90
7307;DHT22;3694;48.732;9.248;2022-10-16T14:11:55;22.00;93.10
7307;DHT22;3694;48.732;9.248;2022-10-16T14:14:22;21.80;94.30
7307;DHT22;3694;48.732;9.248;2022-10-16T14:16:48;21.40;93.80
7307;DHT22;3694;48.732;9.248;2022-10-16T14:19:28;21.40;94.40
7307;DHT22;3694;48.732;9.248;2022-10-16T14:21:56;21.40;94.60
7307;DHT22;3694;48.732;9.248;2022-10-16T14:24:32;21.30;94.40
7307;DHT22;3694;48.732;9.248;2022-10-16T14:26:59;21.40;94.80
7307;DHT22;3694;48.732;9.248;2022-10-16T14:29:27;21.50;94.60
7307;DHT22;3694;48.732;9.248;2022-10-16T14:32:01;21.70;94.30
7307;DHT22;3694;48.732;9.248;2022-10-16T14:34:34;21.80;95.80
7307;DHT22;3694;48.732;9.248;2022-10-16T14:37:23;21.80;95.00
7307;DHT22;3694;48.732;9.248;2022-10-16T14:39:50;21.90;95.00
7307;DHT22;3694;48.732;9.248;2022-10-16T14:42:21;21.90;95.40
7307;DHT22;3694;48.732;9.248;2022-10-16T14:44:50;21.90;95.40
7307;DHT22;3694;48.732;9.248;2022-10-16T14:47:20;22.00;95.50
7307;DHT22;3694;48.732;9.248;2022-10-16T14:49:50;21.90;95.40
7307;DHT22;3694;48.732;9.248;2022-10-16T14:52:16;21.70;95.20
7307;DHT22;3694;48.732;9.248;2022-10-16T14:54:41;21.90;94.90
7307;DHT22;3694;48.732;9.248;2022-10-16T14:57:17;21.90;95.30
7307;DHT22;3694;48.732;9.248;2022-10-16T14:59:44;21.70;95.10
7307;DHT22;3694;48.732;9.248;2022-10-16T15:02:31;21.70;94.50
7307;DHT22;3694;48.732;9.248;2022-10-16T15:04:57;21.70;95.00
7307;DHT22;3694;48.732;9.248;2022-10-16T15:07:23;21.40;95.40
7307;DHT22;3694;48.732;9.248;2022-10-16T15:09:49;21.40;94.70
7307;DHT22;3694;48.732;9.248;2022-10-16T15:12:16;21.40;95.30
7307;DHT22;3694;48.732;9.248;2022-10-16T15:14:42;21.30;95.40
7307;DHT22;3694;48.732;9.248;2022-10-16T15:17:11;21.20;95.90
7307;DHT22;3694;48.732;9.248;2022-10-16T15:19:36;21.00;95.90
7307;DHT22;3694;48.732;9.248;2022-10-16T15:22:02;21.00;95.50
7307;DHT22;3694;48.732;9.248;2022-10-16T15:24:27;20.90;94.80
7307;DHT22;3694;48.732;9.248;2022-10-16T15:26:53;20.80;94.80
7307;DHT22;3694;48.732;9.248;2022-10-16T15:29:19;20.70;95.10
7307;DHT22;3694;48.732;9.248;2022-10-16T15:31:44;20.60;95.10
7307;DHT22;3694;48.732;9.248;2022-10-16T15:34:12;20.50;95.30
7307;DHT22;3694;48.732;9.248;2022-10-16T15:36:38;20.40;95.50
7307;DHT22;3694;48.732;9.248;2022-10-16T15:39:06;20.30;95.70
7307;DHT22;3694;48.732;9.248;2022-10-16T15:41:35;20.20;95.90
7307;DHT22;3694;48.732;9.248;2022-10-16T15:44:01;20.00;95.70
7307;DHT22;3694;48.732;9.248;2022-10-16T15:46:27;19.90;95.70
7307;DHT22;3694;48.732;9.248;2022-10-16T15:48:57;19.70;96.20
7307;DHT22;3694;48.732;9.248;2022-10-16T15:51:23;19.60;96.20
7307;DHT22;3694;48.732;9.248;2022-10-16T15:53:49;19.40;96.30
7307;DHT22;3694;48.732;9.248;2022-10-16T15:56:16;19.30;96.50
7307;DHT22;3694;48.732;9.248;2022-10-16T15:58:42;19.10;97.00
7307;DHT22;3694;48.732;9.248;2022-10-16T16:01:08;19.00;97.30
7307;DHT22;3694;48.732;9.248;2022-10-16T16:03:35;18.90;97.10
7307;DHT22;3694;48.732;9.248;2022-10-16T16:06:09;18.90;97.00
7307;DHT22;3694;48.732;9.248;2022-10-16T16:08:35;18.70;97.00
7307;DHT22;3694;48.732;9.248;2022-10-16T16:11:10;18.90;97.40
7307;DHT22;3694;48.732;9.248;2022-10-16T16:13:36;18.70;97.20
7307;DHT22;3694;48.732;9.248;2022-10-16T16:16:06;18.60;97.40
7307;DHT22;3694;48.732;9.248;2022-10-16T16:18:32;18.50;97.60
7307;DHT22;3694;48.732;9.248;2022-10-16T16:20:58;18.40;98.00
7307;DHT22;3694;48.732;9.248;2022-10-16T16:23:23;18.40;97.80
7307;DHT22;3694;48.732;9.248;2022-10-16T16:26:07;18.40;97.90
7307;DHT22;3694;48.732;9.248;2022-10-16T16:28:35;18.10;98.10
7307;DHT22;3694;48.732;9.248;2022-10-16T16:31:02;17.90;98.40
7307;DHT22;3694;48.732;9.248;2022-10-16T16:33:27;17.80;98.70
7307;DHT22;3694;48.732;9.248;2022-10-16T16:36:00;17.60;99.20
7307;DHT22;3694;48.732;9.248;2022-10-16T16:38:27;17.40;99.80
7307;DHT22;3694;48.732;9.248;2022-10-16T16:40:53;17.40;99.90
7307;DHT22;3694;48.732;9.248;2022-10-16T16:43:19;17.20;99.90
7307;DHT22;3694;48.732;9.248;2022-10-16T16:45:47;17.00;99.90
7307;DHT22;3694;48.732;9.248;2022-10-16T16:48:12;17.00;99.90
7307;DHT22;3694;48.732;9.248;2022-10-16T16:50:38;16.80;99.90
7307;DHT22;3694;48.732;9.248;2022-10-16T16:53:03;16.70;99.90
7307;DHT22;3694;48.732;9.248;2022-10-16T16:55:29;16.70;99.90
7307;DHT22;3694;48.732;9.248;2022-10-16T16:57:55;16.70;99.90
7307;DHT22;3694;48.732;9.248;2022-10-16T17:00:22;16.70;99.90
7307;DHT22;3694;48.732;9.248;2022-10-16T17:02:50;16.60;99.90
7307;DHT22;3694;48.732;9.248;2022-10-16T17:05:17;16.60;99.90
7307;DHT22;3694;48.732;9.248;2022-10-16T17:07:43;16.60;99.90
7307;DHT22;3694;48.732;9.248;2022-10-16T17:10:09;16.40;99.90
7307;DHT22;3694;48.732;9.248;2022-10-16T17:12:35;16.40;99.90
7307;DHT22;3694;48.732;9.248;2022-10-16T17:15:00;16.40;99.90
7307;DHT22;3694;48.732;9.248;2022-10-16T17:17:26;16.30;99.90
7307;DHT22;3694;48.732;9.248;2022-10-16T17:19:52;16.20;99.90
7307;DHT22;3694;48.732;9.248;2022-10-16T17:22:18;16.20;99.90
7307;DHT22;3694;48.732;9.248;2022-10-16T17:24:44;16.10;99.90
7307;DHT22;3694;48.732;9.248;2022-10-16T17:27:10;16.10;99.90
7307;DHT22;3694;48.732;9.248;2022-10-16T17:29:37;16.10;99.90
7307;DHT22;3694;48.732;9.248;2022-10-16T17:32:03;16.10;99.90
7307;DHT22;3694;48.732;9.248;2022-10-16T17:34:28;16.00;99.90
7307;DHT22;3694;48.732;9.248;2022-10-16T17:36:54;16.10;99.90
7307;DHT22;3694;48.732;9.248;2022-10-16T17:39:20;16.20;99.90
7307;DHT22;3694;48.732;9.248;2022-10-16T17:41:46;16.30;99.90
7307;DHT22;3694;48.732;9.248;2022-10-16T17:44:13;16.30;99.90
7307;DHT22;3694;48.732;9.248;2022-10-16T17:46:45;16.40;99.90
7307;DHT22;3694;48.732;9.248;2022-10-16T17:49:11;16.40;99.90
7307;DHT22;3694;48.732;9.248;2022-10-16T17:51:36;16.60;99.90
7307;DHT22;3694;48.732;9.248;2022-10-16T17:54:02;16.40;99.90
7307;DHT22;3694;48.732;9.248;2022-10-16T17:56:29;16.40;99.90